createdAt,value
2022-07-31T00:00:28.938Z,38.34
2022-07-31T00:01:45.225Z,38.25
2022-07-31T00:02:54.166Z,38.52
2022-07-31T00:04:01.442Z,38.25
2022-07-31T00:05:10.015Z,38.14
2022-07-31T00:06:20.773Z,38.06
2022-07-31T00:07:28.049Z,38.15
2022-07-31T00:08:36.960Z,38.25
2022-07-31T00:09:53.755Z,38.03
2022-07-31T00:11:03.150Z,38.16
2022-07-31T00:12:13.195Z,38.10
2022-07-31T00:13:57.656Z,37.91
2022-07-31T00:14:51.924Z,37.69
2022-07-31T00:16:02.309Z,37.78
2022-07-31T00:17:09.386Z,37.67
2022-07-31T00:18:17.398Z,37.63
2022-07-31T00:19:26.876Z,37.50
2022-07-31T00:20:36.215Z,37.63
2022-07-31T00:21:43.820Z,37.58
2022-07-31T00:22:52.029Z,37.61
2022-07-31T00:24:02.008Z,37.30
2022-07-31T00:25:10.096Z,37.19
2022-07-31T00:26:19.831Z,37.05
2022-07-31T00:27:27.591Z,36.96
2022-07-31T00:28:36.258Z,36.88
2022-07-31T00:29:43.517Z,36.82
2022-07-31T00:30:52.625Z,36.82
2022-07-31T00:32:01.411Z,36.84
2022-07-31T00:33:09.014Z,36.83
2022-07-31T00:34:19.894Z,36.76
2022-07-31T00:35:29.904Z,36.86
2022-07-31T00:36:39.099Z,36.68
2022-07-31T00:37:49.002Z,36.61
2022-07-31T00:38:56.032Z,36.64
2022-07-31T00:40:07.542Z,36.63
2022-07-31T00:41:15.998Z,36.51
2022-07-31T00:42:24.622Z,36.26
2022-07-31T00:43:33.024Z,36.17
2022-07-31T00:44:43.022Z,36.19
2022-07-31T00:45:58.838Z,36.14
2022-07-31T00:47:08.710Z,36.15
2022-07-31T00:48:16.726Z,36.23
2022-07-31T00:49:37.295Z,36.09
2022-07-31T00:50:48.016Z,36.09
2022-07-31T00:51:56.521Z,36.03
2022-07-31T00:53:06.663Z,35.98
2022-07-31T00:54:22.643Z,35.98
2022-07-31T00:55:31.678Z,35.95
2022-07-31T00:57:01.590Z,35.89
2022-07-31T00:58:08.140Z,35.81
2022-07-31T00:59:16.349Z,35.88
2022-07-31T01:00:36.869Z,35.85
2022-07-31T01:01:46.215Z,35.53
2022-07-31T01:02:54.714Z,35.18
2022-07-31T01:04:06.059Z,34.74
2022-07-31T01:05:20.191Z,34.55
2022-07-31T01:06:29.161Z,34.22
2022-07-31T01:07:39.810Z,33.92
2022-07-31T01:08:48.639Z,33.65
2022-07-31T01:09:56.002Z,33.39
2022-07-31T01:11:08.548Z,33.41
2022-07-31T01:12:36.774Z,33.41
2022-07-31T01:13:54.230Z,33.58
2022-07-31T01:15:05.005Z,33.74
2022-07-31T01:16:12.663Z,33.78
2022-07-31T01:17:20.076Z,33.90
2022-07-31T01:18:30.576Z,33.99
2022-07-31T01:19:45.048Z,34.14
2022-07-31T01:20:59.316Z,34.23
2022-07-31T01:22:38.218Z,34.42
2022-07-31T01:23:56.921Z,34.38
2022-07-31T01:25:50.121Z,34.46
2022-07-31T01:27:56.509Z,34.46
2022-07-31T01:29:21.423Z,34.36
2022-07-31T01:30:34.452Z,34.27
2022-07-31T01:32:05.391Z,34.30
2022-07-31T01:33:16.944Z,34.22
2022-07-31T01:34:47.870Z,34.33
2022-07-31T01:36:04.199Z,34.37
2022-07-31T01:37:23.050Z,34.32
2022-07-31T01:38:39.571Z,34.17
2022-07-31T01:40:11.632Z,34.27
2022-07-31T01:41:23.652Z,34.40
2022-07-31T01:42:33.368Z,34.51
2022-07-31T01:43:50.458Z,34.43
2022-07-31T01:44:59.802Z,34.50
2022-07-31T01:46:08.025Z,34.42
2022-07-31T01:47:19.240Z,34.28
2022-07-31T01:48:31.223Z,34.28
2022-07-31T01:49:41.860Z,34.14
2022-07-31T01:50:52.863Z,34.00
2022-07-31T01:52:04.463Z,33.70
2022-07-31T01:53:17.191Z,33.46
2022-07-31T01:54:25.838Z,33.24
2022-07-31T01:56:01.871Z,33.13
2022-07-31T01:57:09.551Z,33.07
2022-07-31T01:58:23.523Z,32.99
2022-07-31T01:59:32.228Z,32.94
2022-07-31T02:00:56.112Z,32.80
2022-07-31T02:02:06.025Z,32.69
2022-07-31T02:03:20.467Z,32.59
2022-07-31T02:04:50.824Z,32.46
2022-07-31T02:05:58.848Z,32.32
2022-07-31T02:07:09.481Z,32.03
2022-07-31T02:08:18.810Z,31.78
2022-07-31T02:09:26.531Z,31.64
2022-07-31T02:10:36.722Z,31.57
2022-07-31T02:11:54.365Z,31.51
2022-07-31T02:13:04.082Z,31.37
2022-07-31T02:14:11.727Z,31.27
2022-07-31T02:15:18.900Z,31.20
2022-07-31T02:16:26.294Z,31.06
2022-07-31T02:17:42.311Z,30.85
2022-07-31T02:19:12.769Z,30.62
2022-07-31T02:20:22.982Z,30.40
2022-07-31T02:21:35.206Z,30.28
2022-07-31T02:22:43.962Z,30.17
2022-07-31T02:23:54.582Z,30.05
2022-07-31T02:25:03.648Z,29.97
2022-07-31T02:26:15.325Z,29.82
2022-07-31T02:27:58.065Z,29.69
2022-07-31T02:28:57.211Z,29.51
2022-07-31T02:30:06.540Z,29.38
2022-07-31T02:31:16.178Z,29.24
2022-07-31T02:32:26.887Z,29.15
2022-07-31T02:33:37.949Z,29.04
2022-07-31T02:34:48.320Z,28.93
2022-07-31T02:35:57.594Z,28.85
2022-07-31T02:37:05.524Z,28.76
2022-07-31T02:38:22.814Z,28.68
2022-07-31T02:39:34.964Z,28.59
2022-07-31T02:40:44.468Z,28.51
2022-07-31T02:41:54.662Z,28.45
2022-07-31T02:43:03.744Z,28.36
2022-07-31T02:44:14.984Z,28.28
2022-07-31T02:45:22.481Z,28.23
2022-07-31T02:46:30.999Z,28.15
2022-07-31T02:47:39.542Z,28.12
2022-07-31T02:48:50.865Z,28.08
2022-07-31T02:50:01.283Z,28.01
2022-07-31T02:51:13.844Z,27.95
2022-07-31T02:52:22.369Z,27.91
2022-07-31T02:53:33.041Z,27.86
2022-07-31T02:54:46.306Z,27.82
2022-07-31T02:55:55.510Z,27.79
2022-07-31T02:57:05.405Z,27.75
2022-07-31T02:58:17.291Z,27.73
2022-07-31T02:59:25.612Z,27.66
2022-07-31T03:00:40.241Z,27.63
2022-07-31T03:01:50.135Z,27.59
2022-07-31T03:02:58.030Z,27.52
2022-07-31T03:04:05.435Z,27.50
2022-07-31T03:05:13.333Z,27.46
2022-07-31T03:06:22.201Z,27.41
2022-07-31T03:07:29.694Z,27.36
2022-07-31T03:08:38.203Z,27.34
2022-07-31T03:09:49.025Z,27.30
2022-07-31T03:11:16.849Z,27.24
2022-07-31T03:12:26.613Z,27.21
2022-07-31T03:13:36.853Z,27.16
2022-07-31T03:14:46.494Z,27.14
2022-07-31T03:15:57.879Z,27.12
2022-07-31T03:17:06.644Z,27.08
2022-07-31T03:18:17.654Z,27.07
2022-07-31T03:19:25.693Z,27.05
2022-07-31T03:20:33.461Z,27.04
2022-07-31T03:21:41.965Z,27.02
2022-07-31T03:22:51.194Z,26.98
2022-07-31T03:24:03.811Z,26.96
2022-07-31T03:25:20.169Z,26.93
2022-07-31T03:26:31.632Z,26.90
2022-07-31T03:27:42.161Z,26.86
2022-07-31T03:29:02.445Z,26.84
2022-07-31T03:30:17.497Z,26.83
2022-07-31T03:31:27.669Z,26.78
2022-07-31T03:32:38.377Z,26.76
2022-07-31T03:33:49.249Z,26.76
2022-07-31T03:34:58.436Z,26.74
2022-07-31T03:36:10.754Z,26.74
2022-07-31T03:37:19.370Z,26.73
2022-07-31T03:38:40.961Z,26.72
2022-07-31T03:40:09.465Z,26.69
2022-07-31T03:41:18.225Z,26.67
2022-07-31T03:42:27.356Z,26.67
2022-07-31T03:43:44.150Z,26.64
2022-07-31T03:44:59.491Z,26.62
2022-07-31T03:46:08.035Z,26.60
2022-07-31T03:47:17.069Z,26.58
2022-07-31T03:48:24.598Z,26.55
2022-07-31T03:49:32.915Z,26.53
2022-07-31T03:50:40.782Z,26.50
2022-07-31T03:51:48.767Z,26.48
2022-07-31T03:52:56.608Z,26.46
2022-07-31T03:54:05.510Z,26.44
2022-07-31T03:55:49.983Z,26.40
2022-07-31T03:56:59.313Z,26.37
2022-07-31T03:58:06.790Z,26.36
2022-07-31T03:59:15.907Z,26.31
2022-07-31T04:00:28.465Z,26.28
2022-07-31T04:01:58.349Z,26.25
2022-07-31T04:03:16.579Z,26.21
2022-07-31T04:04:36.149Z,26.18
2022-07-31T04:05:45.361Z,26.16
2022-07-31T04:06:55.361Z,26.12
2022-07-31T04:08:02.506Z,26.10
2022-07-31T04:09:19.068Z,26.05
2022-07-31T04:10:30.079Z,26.01
2022-07-31T04:11:37.663Z,25.97
2022-07-31T04:12:45.940Z,25.94
2022-07-31T04:13:54.611Z,25.90
2022-07-31T04:15:02.260Z,25.86
2022-07-31T04:16:13.442Z,25.81
2022-07-31T04:17:21.714Z,25.77
2022-07-31T04:18:29.129Z,25.74
2022-07-31T04:19:38.104Z,25.71
2022-07-31T04:20:45.798Z,25.68
2022-07-31T04:21:58.662Z,25.66
2022-07-31T04:23:07.191Z,25.63
2022-07-31T04:24:35.860Z,25.58
2022-07-31T04:25:57.144Z,25.54
2022-07-31T04:27:12.841Z,25.50
2022-07-31T04:28:23.045Z,25.47
2022-07-31T04:29:31.998Z,25.44
2022-07-31T04:30:39.767Z,25.40
2022-07-31T04:31:49.624Z,25.39
2022-07-31T04:33:05.437Z,25.37
2022-07-31T04:34:15.154Z,25.36
2022-07-31T04:35:23.728Z,25.34
2022-07-31T04:36:34.209Z,25.31
2022-07-31T04:37:48.081Z,25.28
2022-07-31T04:39:02.178Z,25.26
2022-07-31T04:40:12.225Z,25.24
2022-07-31T04:41:19.535Z,25.22
2022-07-31T04:42:27.140Z,25.21
2022-07-31T04:43:40.697Z,25.19
2022-07-31T04:44:51.691Z,25.16
2022-07-31T04:46:03.798Z,25.14
2022-07-31T04:47:26.482Z,25.11
2022-07-31T04:48:37.226Z,25.09
2022-07-31T04:49:49.500Z,25.05
2022-07-31T04:50:59.118Z,25.03
2022-07-31T04:52:08.334Z,25.01
2022-07-31T04:53:15.630Z,24.99
2022-07-31T04:54:23.342Z,24.96
2022-07-31T04:55:31.928Z,24.94
2022-07-31T04:56:43.885Z,24.92
2022-07-31T04:57:52.803Z,24.89
2022-07-31T04:59:04.839Z,24.87
2022-07-31T05:00:16.552Z,24.85
2022-07-31T05:01:27.116Z,24.83
2022-07-31T05:02:34.691Z,24.80
2022-07-31T05:03:42.057Z,24.77
2022-07-31T05:04:52.492Z,24.75
2022-07-31T05:06:17.022Z,24.73
2022-07-31T05:07:45.603Z,24.68
2022-07-31T05:09:01.701Z,24.66
2022-07-31T05:10:11.880Z,24.66
2022-07-31T05:11:24.149Z,24.64
2022-07-31T05:12:32.156Z,24.63
2022-07-31T05:13:42.685Z,24.62
2022-07-31T05:14:52.071Z,24.61
2022-07-31T05:16:01.290Z,24.61
2022-07-31T05:17:11.088Z,24.60
2022-07-31T05:18:40.481Z,24.59
2022-07-31T05:20:16.554Z,24.58
2022-07-31T05:21:53.829Z,24.58
2022-07-31T05:23:24.212Z,24.60
2022-07-31T05:24:56.774Z,24.60
2022-07-31T05:26:06.641Z,24.59
2022-07-31T05:27:17.294Z,24.59
2022-07-31T05:28:29.927Z,24.59
2022-07-31T05:29:41.701Z,24.59
2022-07-31T05:30:51.888Z,24.58
2022-07-31T05:32:00.743Z,24.56
2022-07-31T05:33:11.311Z,24.55
2022-07-31T05:34:18.606Z,24.54
2022-07-31T05:35:26.122Z,24.53
2022-07-31T05:36:35.527Z,24.49
2022-07-31T05:37:43.908Z,24.47
2022-07-31T05:38:54.631Z,24.44
2022-07-31T05:40:23.550Z,24.41
2022-07-31T05:42:02.746Z,24.38
2022-07-31T05:43:34.083Z,24.37
2022-07-31T05:44:53.073Z,24.36
2022-07-31T05:46:01.026Z,24.36
2022-07-31T05:47:09.992Z,24.36
2022-07-31T05:48:18.418Z,24.35
2022-07-31T05:49:27.885Z,24.36
2022-07-31T05:50:38.155Z,24.36
2022-07-31T05:51:47.362Z,24.35
2022-07-31T05:52:57.177Z,24.35
2022-07-31T05:54:28.899Z,24.31
2022-07-31T05:55:57.709Z,24.30
2022-07-31T05:57:36.559Z,24.27
2022-07-31T05:58:48.433Z,24.23
2022-07-31T05:59:56.978Z,24.19
2022-07-31T06:01:08.204Z,24.13
2022-07-31T06:02:18.500Z,24.10
2022-07-31T06:03:52.723Z,24.10
2022-07-31T06:05:20.334Z,24.09
2022-07-31T06:06:27.840Z,24.09
2022-07-31T06:07:37.014Z,24.10
2022-07-31T06:08:46.442Z,24.10
2022-07-31T06:09:54.719Z,24.10
2022-07-31T06:11:03.485Z,24.10
2022-07-31T06:12:11.317Z,24.08
2022-07-31T06:13:19.844Z,24.04
2022-07-31T06:14:30.943Z,24.03
2022-07-31T06:15:52.712Z,24.01
2022-07-31T06:17:01.750Z,24.01
2022-07-31T06:18:12.235Z,24.00
2022-07-31T06:19:24.573Z,24.00
2022-07-31T06:20:37.267Z,23.98
2022-07-31T06:21:49.189Z,23.96
2022-07-31T06:23:03.439Z,23.94
2022-07-31T06:24:27.757Z,23.89
2022-07-31T06:25:41.453Z,23.86
2022-07-31T06:26:50.162Z,23.85
2022-07-31T06:27:59.972Z,23.83
2022-07-31T06:29:11.281Z,23.81
2022-07-31T06:30:18.642Z,23.78
2022-07-31T06:31:27.243Z,23.75
2022-07-31T06:32:39.550Z,23.71
2022-07-31T06:33:49.605Z,23.70
2022-07-31T06:34:58.663Z,23.66
2022-07-31T06:36:06.750Z,23.65
2022-07-31T06:37:21.084Z,23.64
2022-07-31T06:38:31.917Z,23.61
2022-07-31T06:40:00.162Z,23.58
2022-07-31T06:41:48.854Z,23.55
2022-07-31T06:43:18.503Z,23.51
2022-07-31T06:44:46.686Z,23.48
2022-07-31T06:46:15.811Z,23.45
2022-07-31T06:47:57.611Z,23.43
2022-07-31T06:49:28.870Z,23.41
2022-07-31T06:50:38.167Z,23.40
2022-07-31T06:52:05.254Z,23.40
2022-07-31T06:53:15.216Z,23.40
2022-07-31T06:54:26.786Z,23.38
2022-07-31T06:55:36.500Z,23.37
2022-07-31T06:56:47.334Z,23.37
2022-07-31T06:57:58.049Z,23.36
2022-07-31T06:59:07.143Z,23.35
2022-07-31T07:00:19.608Z,23.35
2022-07-31T07:01:31.210Z,23.36
2022-07-31T07:02:41.415Z,23.35
2022-07-31T07:03:50.125Z,23.34
2022-07-31T07:05:05.834Z,23.35
2022-07-31T07:06:15.620Z,23.33
2022-07-31T07:07:24.126Z,23.33
2022-07-31T07:08:44.294Z,23.32
2022-07-31T07:09:53.272Z,23.32
2022-07-31T07:11:26.481Z,23.32
2022-07-31T07:12:35.514Z,23.31
2022-07-31T07:13:47.043Z,23.31
2022-07-31T07:14:57.217Z,23.30
2022-07-31T07:16:05.259Z,23.30
2022-07-31T07:17:14.466Z,23.30
2022-07-31T07:18:25.369Z,23.30
2022-07-31T07:19:34.469Z,23.30
2022-07-31T07:20:45.315Z,23.30
2022-07-31T07:21:55.654Z,23.30
2022-07-31T07:23:04.485Z,23.31
2022-07-31T07:24:33.183Z,23.31
2022-07-31T07:25:47.217Z,23.32
2022-07-31T07:26:54.775Z,23.33
2022-07-31T07:28:03.042Z,23.33
2022-07-31T07:29:12.156Z,23.33
2022-07-31T07:30:22.457Z,23.33
2022-07-31T07:31:32.873Z,23.32
2022-07-31T07:32:43.684Z,23.31
2022-07-31T07:33:53.478Z,23.30
2022-07-31T07:35:05.434Z,23.29
2022-07-31T07:36:36.219Z,23.28
2022-07-31T07:37:49.003Z,23.27
2022-07-31T07:38:59.097Z,23.26
2022-07-31T07:40:10.830Z,23.26
2022-07-31T07:41:18.755Z,23.25
2022-07-31T07:42:26.294Z,23.26
2022-07-31T07:43:34.222Z,23.24
2022-07-31T07:44:41.670Z,23.24
2022-07-31T07:45:50.462Z,23.24
2022-07-31T07:46:59.500Z,23.25
2022-07-31T07:48:07.783Z,23.25
2022-07-31T07:49:37.303Z,23.25
2022-07-31T07:51:05.873Z,23.25
2022-07-31T07:52:43.780Z,23.25
2022-07-31T07:54:23.718Z,23.25
2022-07-31T07:55:49.598Z,23.24
2022-07-31T07:57:32.073Z,23.20
2022-07-31T07:59:04.893Z,23.18
2022-07-31T08:00:33.541Z,23.17
2022-07-31T08:01:44.034Z,23.15
2022-07-31T08:03:47.597Z,23.12
2022-07-31T08:04:31.734Z,23.09
2022-07-31T08:05:40.554Z,23.08
2022-07-31T08:06:47.933Z,23.07
2022-07-31T08:07:58.131Z,23.09
2022-07-31T08:09:32.895Z,23.06
2022-07-31T08:10:53.146Z,23.02
2022-07-31T08:12:08.452Z,22.99
2022-07-31T08:13:40.955Z,22.97
2022-07-31T08:15:12.003Z,22.95
2022-07-31T08:16:52.539Z,22.93
2022-07-31T08:17:59.990Z,22.93
2022-07-31T08:19:10.014Z,22.93
2022-07-31T08:20:17.543Z,22.92
2022-07-31T08:21:28.029Z,22.91
2022-07-31T08:22:37.391Z,22.89
2022-07-31T08:23:44.468Z,22.87
2022-07-31T08:24:52.210Z,22.85
2022-07-31T08:26:02.383Z,22.84
2022-07-31T08:27:40.185Z,22.82
2022-07-31T08:28:51.257Z,22.81
2022-07-31T08:30:03.622Z,22.80
2022-07-31T08:31:12.603Z,22.78
2022-07-31T08:32:31.900Z,22.75
2022-07-31T08:34:03.552Z,22.73
2022-07-31T08:35:11.251Z,22.72
2022-07-31T08:36:19.226Z,22.72
2022-07-31T08:37:59.099Z,22.71
2022-07-31T08:39:00.697Z,22.70
2022-07-31T08:40:30.077Z,22.69
2022-07-31T08:41:42.046Z,22.67
2022-07-31T08:42:52.478Z,22.66
2022-07-31T08:44:04.497Z,22.64
2022-07-31T08:45:14.790Z,22.63
2022-07-31T08:46:27.280Z,22.62
2022-07-31T08:47:36.681Z,22.62
2022-07-31T08:48:49.894Z,22.62
2022-07-31T08:50:00.588Z,22.62
2022-07-31T08:51:08.772Z,22.62
2022-07-31T08:52:35.865Z,22.62
2022-07-31T08:54:12.421Z,22.61
2022-07-31T08:55:54.991Z,22.61
2022-07-31T08:56:53.913Z,22.61
2022-07-31T08:58:01.323Z,22.60
2022-07-31T08:59:08.785Z,22.60
2022-07-31T09:00:19.254Z,22.60
2022-07-31T09:01:27.011Z,22.60
2022-07-31T09:02:37.243Z,22.60
2022-07-31T09:04:05.618Z,22.58
2022-07-31T09:05:12.973Z,22.58
2022-07-31T09:06:25.325Z,22.57
2022-07-31T09:07:33.291Z,22.56
2022-07-31T09:08:44.074Z,22.55
2022-07-31T09:09:52.681Z,22.54
2022-07-31T09:11:10.026Z,22.53
2022-07-31T09:12:41.755Z,22.52
2022-07-31T09:14:01.926Z,22.50
2022-07-31T09:15:34.367Z,22.47
2022-07-31T09:16:50.685Z,22.44
2022-07-31T09:18:03.323Z,22.42
2022-07-31T09:19:54.191Z,22.41
2022-07-31T09:20:59.425Z,22.39
2022-07-31T09:22:11.050Z,22.39
2022-07-31T09:23:20.458Z,22.39
2022-07-31T09:24:32.035Z,22.39
2022-07-31T09:25:58.740Z,22.38
2022-07-31T09:27:10.761Z,22.38
2022-07-31T09:28:25.007Z,22.38
2022-07-31T09:29:51.316Z,22.38
2022-07-31T09:31:15.104Z,22.38
2022-07-31T09:32:38.460Z,22.37
2022-07-31T09:33:53.566Z,22.36
2022-07-31T09:35:09.627Z,22.35
2022-07-31T09:36:18.329Z,22.33
2022-07-31T09:37:29.371Z,22.32
2022-07-31T09:38:57.765Z,22.29
2022-07-31T09:40:57.002Z,22.28
2022-07-31T09:42:38.451Z,22.24
2022-07-31T09:44:02.363Z,22.24
2022-07-31T09:45:25.693Z,22.23
2022-07-31T09:46:49.689Z,22.21
2022-07-31T09:48:07.668Z,22.19
2022-07-31T09:49:15.442Z,22.18
2022-07-31T09:50:26.100Z,22.19
2022-07-31T09:51:48.565Z,22.18
2022-07-31T09:53:02.362Z,22.17
2022-07-31T09:54:26.948Z,22.17
2022-07-31T09:55:55.414Z,22.15
2022-07-31T09:57:24.878Z,22.15
2022-07-31T09:58:37.349Z,22.15
2022-07-31T09:59:46.290Z,22.16
2022-07-31T10:00:55.593Z,22.17
2022-07-31T10:02:03.153Z,22.18
2022-07-31T10:03:12.052Z,22.21
2022-07-31T10:04:22.565Z,22.23
2022-07-31T10:05:33.258Z,22.24
2022-07-31T10:06:42.157Z,22.27
2022-07-31T10:07:50.151Z,22.28
2022-07-31T10:09:14.189Z,22.29
2022-07-31T10:10:46.833Z,22.31
2022-07-31T10:12:19.358Z,22.34
2022-07-31T10:13:26.567Z,22.35
2022-07-31T10:14:41.758Z,22.37
2022-07-31T10:15:51.230Z,22.39
2022-07-31T10:17:26.125Z,22.38
2022-07-31T10:19:03.626Z,22.39
2022-07-31T10:20:37.719Z,22.41
2022-07-31T10:22:03.654Z,22.43
2022-07-31T10:23:19.913Z,22.45
2022-07-31T10:24:30.493Z,22.47
2022-07-31T10:25:42.808Z,22.49
2022-07-31T10:27:07.943Z,22.51
2022-07-31T10:28:20.248Z,22.50
2022-07-31T10:29:32.439Z,22.50
2022-07-31T10:30:43.451Z,22.50
2022-07-31T10:31:51.161Z,22.52
2022-07-31T10:33:00.044Z,22.49
2022-07-31T10:34:07.397Z,22.50
2022-07-31T10:35:42.031Z,22.48
2022-07-31T10:37:30.364Z,22.45
2022-07-31T10:39:38.477Z,22.44
2022-07-31T10:41:22.900Z,22.44
2022-07-31T10:42:54.240Z,22.44
2022-07-31T10:44:29.811Z,22.44
2022-07-31T10:45:54.049Z,22.44
2022-07-31T10:47:22.379Z,22.41
2022-07-31T10:48:56.299Z,22.41
2022-07-31T10:50:27.989Z,22.42
2022-07-31T10:51:58.111Z,22.41
2022-07-31T10:53:50.592Z,22.42
2022-07-31T10:55:05.048Z,22.41
2022-07-31T10:56:27.349Z,22.40
2022-07-31T10:57:56.182Z,22.40
2022-07-31T10:59:36.052Z,22.40
2022-07-31T11:01:09.904Z,22.40
2022-07-31T11:02:50.196Z,22.40
2022-07-31T11:04:05.996Z,22.41
2022-07-31T11:06:01.467Z,22.41
2022-07-31T11:07:27.054Z,22.39
2022-07-31T11:08:53.368Z,22.39
2022-07-31T11:10:23.703Z,22.37
2022-07-31T11:11:52.929Z,22.36
2022-07-31T11:13:19.317Z,22.38
2022-07-31T11:14:41.530Z,22.40
2022-07-31T11:16:24.727Z,22.40
2022-07-31T11:18:22.149Z,22.40
2022-07-31T11:19:52.849Z,22.39
2022-07-31T11:21:35.866Z,22.37
2022-07-31T11:22:36.871Z,22.34
2022-07-31T11:24:02.070Z,22.34
2022-07-31T11:25:15.511Z,22.33
2022-07-31T11:26:33.404Z,22.31
2022-07-31T11:27:51.207Z,22.31
2022-07-31T11:28:58.654Z,22.31
2022-07-31T11:30:27.419Z,22.31
2022-07-31T11:31:35.753Z,22.29
2022-07-31T11:32:50.920Z,22.30
2022-07-31T11:34:03.770Z,22.30
2022-07-31T11:35:12.308Z,22.30
2022-07-31T11:36:23.278Z,22.30
2022-07-31T11:37:56.255Z,22.30
2022-07-31T11:39:04.366Z,22.29
2022-07-31T11:40:13.847Z,22.29
2022-07-31T11:41:23.323Z,22.29
2022-07-31T11:42:34.519Z,22.27
2022-07-31T11:43:47.197Z,22.27
2022-07-31T11:44:54.522Z,22.25
2022-07-31T11:46:01.829Z,22.24
2022-07-31T11:48:09.845Z,22.23
2022-07-31T11:48:45.690Z,22.20
2022-07-31T11:50:12.199Z,22.20
2022-07-31T11:51:23.074Z,22.20
2022-07-31T11:52:37.280Z,22.21
2022-07-31T11:53:46.341Z,22.21
2022-07-31T11:55:13.435Z,22.20
2022-07-31T11:56:22.281Z,22.19
2022-07-31T11:57:52.236Z,22.19
2022-07-31T11:59:05.609Z,22.17
2022-07-31T12:00:26.922Z,22.16
2022-07-31T12:01:40.697Z,22.13
2022-07-31T12:02:48.975Z,22.13
2022-07-31T12:03:56.736Z,22.12
2022-07-31T12:05:07.353Z,22.12
2022-07-31T12:06:15.394Z,22.12
2022-07-31T12:07:22.337Z,22.12
2022-07-31T12:08:29.963Z,22.12
2022-07-31T12:10:01.795Z,22.12
2022-07-31T12:11:09.002Z,22.12
2022-07-31T12:12:16.172Z,22.14
2022-07-31T12:13:24.775Z,22.15
2022-07-31T12:14:32.887Z,22.14
2022-07-31T12:15:40.362Z,22.14
2022-07-31T12:16:48.410Z,22.13
2022-07-31T12:18:08.086Z,22.13
2022-07-31T12:19:18.469Z,22.12
2022-07-31T12:20:35.471Z,22.11
2022-07-31T12:21:48.300Z,22.10
2022-07-31T12:23:02.298Z,22.10
2022-07-31T12:24:13.787Z,22.09
2022-07-31T12:25:23.096Z,22.09
2022-07-31T12:26:31.847Z,22.08
2022-07-31T12:27:39.533Z,22.09
2022-07-31T12:29:10.070Z,22.08
2022-07-31T12:30:18.440Z,22.08
2022-07-31T12:31:25.878Z,22.07
2022-07-31T12:32:35.752Z,22.05
2022-07-31T12:33:45.818Z,22.05
2022-07-31T12:35:10.919Z,22.04
2022-07-31T12:36:19.671Z,22.02
2022-07-31T12:37:27.661Z,22.01
2022-07-31T12:38:45.499Z,22.00
2022-07-31T12:40:01.415Z,21.98
2022-07-31T12:41:10.816Z,21.97
2022-07-31T12:42:40.995Z,21.98
2022-07-31T12:43:52.360Z,21.98
2022-07-31T12:45:19.168Z,22.00
2022-07-31T12:46:41.991Z,22.01
2022-07-31T12:47:55.340Z,22.01
2022-07-31T12:49:06.864Z,22.01
2022-07-31T12:50:14.835Z,22.01
2022-07-31T12:51:44.901Z,21.99
2022-07-31T12:52:59.429Z,21.96
2022-07-31T12:54:08.462Z,21.93
2022-07-31T12:55:17.746Z,21.90
2022-07-31T12:56:26.726Z,21.88
2022-07-31T12:57:34.560Z,21.87
2022-07-31T12:58:53.230Z,21.84
2022-07-31T13:00:00.565Z,21.81
2022-07-31T13:01:07.709Z,21.79
2022-07-31T13:02:18.581Z,21.77
2022-07-31T13:03:28.551Z,21.77
2022-07-31T13:04:56.632Z,21.76
2022-07-31T13:06:04.843Z,21.75
2022-07-31T13:07:16.106Z,21.73
2022-07-31T13:08:26.273Z,21.71
2022-07-31T13:09:33.586Z,21.69
2022-07-31T13:10:41.085Z,21.68
2022-07-31T13:11:52.129Z,21.67
2022-07-31T13:13:02.035Z,21.65
2022-07-31T13:14:09.599Z,21.64
2022-07-31T13:15:21.031Z,21.64
2022-07-31T13:16:30.568Z,21.65
2022-07-31T13:17:40.989Z,21.65
2022-07-31T13:18:52.748Z,21.65
2022-07-31T13:20:06.292Z,21.65
2022-07-31T13:21:14.541Z,21.66
2022-07-31T13:22:22.492Z,21.67
2022-07-31T13:23:30.415Z,21.69
2022-07-31T13:24:37.826Z,21.72
2022-07-31T13:25:47.932Z,21.75
2022-07-31T13:26:55.294Z,21.78
2022-07-31T13:28:02.405Z,21.81
2022-07-31T13:29:10.875Z,21.85
2022-07-31T13:30:18.484Z,21.91
2022-07-31T13:31:28.185Z,21.99
2022-07-31T13:32:35.652Z,22.09
2022-07-31T13:33:43.740Z,22.20
2022-07-31T13:35:23.573Z,22.29
2022-07-31T13:36:22.662Z,22.37
2022-07-31T13:37:31.265Z,22.41
2022-07-31T13:38:41.075Z,22.43
2022-07-31T13:39:50.020Z,22.43
2022-07-31T13:41:19.254Z,22.42
2022-07-31T13:42:29.413Z,22.41
2022-07-31T13:43:39.257Z,22.43
2022-07-31T13:45:08.573Z,22.45
2022-07-31T13:46:16.281Z,22.51
2022-07-31T13:47:26.371Z,22.66
2022-07-31T13:48:57.413Z,22.89
2022-07-31T13:50:05.902Z,23.08
2022-07-31T13:51:13.838Z,23.27
2022-07-31T13:52:22.206Z,23.41
2022-07-31T13:53:32.714Z,23.52
2022-07-31T13:54:41.210Z,23.61
2022-07-31T13:55:50.360Z,23.72
2022-07-31T13:56:57.927Z,23.83
2022-07-31T13:58:06.871Z,23.93
2022-07-31T13:59:16.224Z,24.06
2022-07-31T14:00:24.777Z,24.23
2022-07-31T14:02:03.221Z,24.41
2022-07-31T14:03:02.394Z,24.62
2022-07-31T14:04:15.344Z,24.81
2022-07-31T14:05:30.425Z,25.01
2022-07-31T14:06:47.159Z,25.17
2022-07-31T14:07:55.064Z,25.24
2022-07-31T14:09:02.649Z,25.30
2022-07-31T14:10:11.104Z,25.43
2022-07-31T14:11:19.846Z,25.64
2022-07-31T14:12:28.791Z,25.85
2022-07-31T14:13:42.349Z,26.03
2022-07-31T14:14:52.907Z,26.16
2022-07-31T14:16:00.492Z,26.31
2022-07-31T14:17:08.478Z,26.52
2022-07-31T14:18:15.684Z,26.77
2022-07-31T14:19:23.377Z,27.03
2022-07-31T14:20:35.014Z,27.23
2022-07-31T14:21:50.361Z,27.32
2022-07-31T14:23:09.589Z,27.38
2022-07-31T14:24:16.805Z,27.44
2022-07-31T14:25:23.733Z,27.49
2022-07-31T14:26:31.451Z,27.53
2022-07-31T14:27:39.845Z,27.66
2022-07-31T14:28:48.886Z,27.88
2022-07-31T14:29:57.389Z,28.05
2022-07-31T14:31:05.132Z,28.11
2022-07-31T14:32:13.219Z,28.13
2022-07-31T14:33:22.537Z,28.17
2022-07-31T14:34:35.638Z,28.27
2022-07-31T14:35:54.712Z,28.45
2022-07-31T14:37:05.020Z,28.64
2022-07-31T14:38:15.706Z,28.83
2022-07-31T14:39:37.098Z,28.88
2022-07-31T14:40:52.668Z,28.95
2022-07-31T14:42:01.493Z,29.00
2022-07-31T14:43:11.796Z,29.02
2022-07-31T14:44:28.522Z,29.05
2022-07-31T14:45:51.137Z,29.13
2022-07-31T14:47:01.395Z,29.14
2022-07-31T14:48:09.030Z,29.08
2022-07-31T14:49:16.580Z,29.08
2022-07-31T14:50:25.868Z,29.10
2022-07-31T14:51:33.251Z,29.16
2022-07-31T14:52:41.239Z,29.20
2022-07-31T14:53:49.696Z,29.23
2022-07-31T14:55:03.658Z,29.22
2022-07-31T14:56:12.066Z,29.31
2022-07-31T14:57:23.029Z,29.48
2022-07-31T14:58:34.214Z,29.54
2022-07-31T15:00:04.674Z,29.51
2022-07-31T15:01:19.273Z,29.59
2022-07-31T15:02:27.449Z,29.72
2022-07-31T15:03:38.480Z,29.85
2022-07-31T15:04:47.773Z,30.01
2022-07-31T15:06:42.315Z,30.08
2022-07-31T15:07:45.830Z,30.06
2022-07-31T15:08:55.809Z,30.02
2022-07-31T15:10:05.403Z,30.01
2022-07-31T15:11:13.658Z,29.90
2022-07-31T15:12:25.743Z,29.89
2022-07-31T15:13:38.971Z,29.89
2022-07-31T15:14:48.810Z,29.89
2022-07-31T15:15:56.713Z,29.90
2022-07-31T15:17:08.413Z,29.91
2022-07-31T15:18:19.473Z,30.09
2022-07-31T15:19:30.343Z,30.22
2022-07-31T15:20:40.814Z,30.29
2022-07-31T15:22:16.048Z,30.29
2022-07-31T15:23:20.830Z,30.27
2022-07-31T15:24:31.578Z,30.35
2022-07-31T15:25:40.249Z,30.40
2022-07-31T15:26:54.044Z,30.54
2022-07-31T15:28:04.707Z,30.74
2022-07-31T15:29:15.546Z,30.90
2022-07-31T15:30:24.771Z,31.06
2022-07-31T15:31:34.005Z,31.28
2022-07-31T15:32:42.710Z,31.60
2022-07-31T15:33:55.998Z,31.80
2022-07-31T15:35:06.226Z,31.86
2022-07-31T15:36:15.349Z,31.98
2022-07-31T15:37:23.578Z,31.95
2022-07-31T15:38:33.586Z,32.08
2022-07-31T15:39:45.099Z,32.18
2022-07-31T15:41:12.750Z,32.29
2022-07-31T15:42:28.827Z,32.42
2022-07-31T15:43:41.303Z,32.43
2022-07-31T15:44:51.060Z,32.31
2022-07-31T15:46:11.522Z,32.14
2022-07-31T15:47:19.471Z,31.90
2022-07-31T15:48:28.406Z,31.68
2022-07-31T15:49:43.233Z,31.49
2022-07-31T15:50:54.025Z,31.29
2022-07-31T15:52:02.223Z,31.31
2022-07-31T15:53:09.582Z,31.37
2022-07-31T15:54:17.985Z,31.59
2022-07-31T15:55:26.531Z,31.87
2022-07-31T15:56:38.026Z,32.03
2022-07-31T15:57:46.834Z,32.15
2022-07-31T15:58:56.354Z,32.37
2022-07-31T16:00:04.233Z,32.54
2022-07-31T16:01:20.074Z,32.54